sensor_id;sensor_type;location;lat;lon;timestamp;pressure;altitude;pressure_sealevel;temperature;humidity
64602;BME280;51013;42.630;23.192;2022-07-10T00:00:25;92254.28;;;13.75;86.39
64602;BME280;51013;42.630;23.192;2022-07-10T00:02:52;92331.94;;;14.31;86.07
64602;BME280;51013;42.630;23.192;2022-07-10T00:05:19;92321.59;;;14.19;85.91
64602;BME280;51013;42.630;23.192;2022-07-10T00:07:48;92278.97;;;13.90;86.20
64602;BME280;51013;42.630;23.192;2022-07-10T00:10:15;92326.97;;;14.26;85.79
64602;BME280;51013;42.630;23.192;2022-07-10T00:12:43;92312.88;;;14.15;85.51
64602;BME280;51013;42.630;23.192;2022-07-10T00:15:13;92310.09;;;14.04;85.60
64602;BME280;51013;42.630;23.192;2022-07-10T00:17:40;92304.41;;;14.02;86.11
64602;BME280;51013;42.630;23.192;2022-07-10T00:20:10;92317.97;;;14.00;86.02
64602;BME280;51013;42.630;23.192;2022-07-10T00:22:38;92330.13;;;14.05;86.36
64602;BME280;51013;42.630;23.192;2022-07-10T00:25:07;92310.38;;;13.95;86.41
64602;BME280;51013;42.630;23.192;2022-07-10T00:27:35;92317.56;;;13.98;87.03
64602;BME280;51013;42.630;23.192;2022-07-10T00:30:04;92316.09;;;14.01;86.92
64602;BME280;51013;42.630;23.192;2022-07-10T00:32:32;92314.22;;;14.01;86.92
64602;BME280;51013;42.630;23.192;2022-07-10T00:34:59;92319.09;;;13.99;86.89
64602;BME280;51013;42.630;23.192;2022-07-10T00:37:27;92320.25;;;14.02;86.41
64602;BME280;51013;42.630;23.192;2022-07-10T00:39:54;92318.31;;;13.99;86.46
64602;BME280;51013;42.630;23.192;2022-07-10T00:42:21;92313.88;;;14.03;86.28
64602;BME280;51013;42.630;23.192;2022-07-10T00:44:48;92312.75;;;14.04;85.81
64602;BME280;51013;42.630;23.192;2022-07-10T00:47:15;92316.81;;;13.98;86.36
64602;BME280;51013;42.630;23.192;2022-07-10T00:49:46;92270.81;;;13.72;85.58
64602;BME280;51013;42.630;23.192;2022-07-10T00:52:16;92305.44;;;13.94;85.93
64602;BME280;51013;42.630;23.192;2022-07-10T00:54:45;92303.09;;;13.89;86.26
64602;BME280;51013;42.630;23.192;2022-07-10T00:57:14;92302.69;;;13.87;85.81
64602;BME280;51013;42.630;23.192;2022-07-10T00:59:42;92266.91;;;13.59;86.36
64602;BME280;51013;42.630;23.192;2022-07-10T01:02:13;92302.28;;;13.85;85.97
64602;BME280;51013;42.630;23.192;2022-07-10T01:04:41;92281.78;;;13.74;86.01
64602;BME280;51013;42.630;23.192;2022-07-10T01:07:10;92300.06;;;13.87;85.94
64602;BME280;51013;42.630;23.192;2022-07-10T01:09:37;92244.84;;;13.48;86.18
64602;BME280;51013;42.630;23.192;2022-07-10T01:12:05;92262.38;;;13.59;86.43
64602;BME280;51013;42.630;23.192;2022-07-10T01:14:32;92279.94;;;13.75;86.07
64602;BME280;51013;42.630;23.192;2022-07-10T01:17:01;92295.50;;;13.83;85.97
64602;BME280;51013;42.630;23.192;2022-07-10T01:19:28;92300.03;;;13.83;85.75
64602;BME280;51013;42.630;23.192;2022-07-10T01:21:56;92301.19;;;13.86;85.74
64602;BME280;51013;42.630;23.192;2022-07-10T01:24:23;92289.88;;;13.85;85.84
64602;BME280;51013;42.630;23.192;2022-07-10T01:26:50;92287.88;;;13.78;85.54
64602;BME280;51013;42.630;23.192;2022-07-10T01:29:17;92291.69;;;13.81;86.02
64602;BME280;51013;42.630;23.192;2022-07-10T01:31:44;92295.03;;;13.78;85.26
64602;BME280;51013;42.630;23.192;2022-07-10T01:34:12;92216.69;;;13.29;85.72
64602;BME280;51013;42.630;23.192;2022-07-10T01:36:39;92225.53;;;13.40;85.51
64602;BME280;51013;42.630;23.192;2022-07-10T01:39:08;92276.88;;;13.73;85.76
64602;BME280;51013;42.630;23.192;2022-07-10T01:41:35;92265.13;;;13.67;85.67
64602;BME280;51013;42.630;23.192;2022-07-10T01:44:02;92275.34;;;13.72;86.27
64602;BME280;51013;42.630;23.192;2022-07-10T01:46:29;92264.34;;;13.66;86.55
64602;BME280;51013;42.630;23.192;2022-07-10T01:48:56;92268.56;;;13.71;87.01
64602;BME280;51013;42.630;23.192;2022-07-10T01:51:23;92254.78;;;13.58;87.59
64602;BME280;51013;42.630;23.192;2022-07-10T01:53:50;92267.59;;;13.56;88.02
64602;BME280;51013;42.630;23.192;2022-07-10T01:56:19;92282.88;;;13.70;88.52
64602;BME280;51013;42.630;23.192;2022-07-10T01:58:47;92222.06;;;13.32;87.71
64602;BME280;51013;42.630;23.192;2022-07-10T02:01:13;92235.44;;;13.47;88.22
64602;BME280;51013;42.630;23.192;2022-07-10T02:03:40;92276.09;;;13.72;87.82
64602;BME280;51013;42.630;23.192;2022-07-10T02:06:24;92268.50;;;13.67;87.89
64602;BME280;51013;42.630;23.192;2022-07-10T02:08:52;92270.41;;;13.67;87.46
64602;BME280;51013;42.630;23.192;2022-07-10T02:11:20;92267.91;;;13.51;87.51
64602;BME280;51013;42.630;23.192;2022-07-10T02:13:47;92265.00;;;13.59;87.60
64602;BME280;51013;42.630;23.192;2022-07-10T02:16:15;92264.34;;;13.66;87.27
64602;BME280;51013;42.630;23.192;2022-07-10T02:18:44;92266.84;;;13.55;87.74
64602;BME280;51013;42.630;23.192;2022-07-10T02:21:11;92182.34;;;12.98;88.12
64602;BME280;51013;42.630;23.192;2022-07-10T02:23:38;92266.94;;;13.62;87.73
64602;BME280;51013;42.630;23.192;2022-07-10T02:26:06;92263.13;;;13.60;87.57
64602;BME280;51013;42.630;23.192;2022-07-10T02:28:35;92246.53;;;13.59;87.23
64602;BME280;51013;42.630;23.192;2022-07-10T02:31:02;92259.44;;;13.65;87.03
64602;BME280;51013;42.630;23.192;2022-07-10T02:33:29;92259.06;;;13.66;86.99
64602;BME280;51013;42.630;23.192;2022-07-10T02:35:56;92257.16;;;13.63;86.71
64602;BME280;51013;42.630;23.192;2022-07-10T02:38:23;92259.44;;;13.65;86.72
64602;BME280;51013;42.630;23.192;2022-07-10T02:40:50;92255.59;;;13.62;86.58
64602;BME280;51013;42.630;23.192;2022-07-10T02:43:16;92034.97;;;12.10;85.62
64602;BME280;51013;42.630;23.192;2022-07-10T02:45:45;92259.66;;;13.56;85.88
64602;BME280;51013;42.630;23.192;2022-07-10T02:48:12;92256.63;;;13.54;86.68
64602;BME280;51013;42.630;23.192;2022-07-10T02:50:40;92264.94;;;13.56;86.27
64602;BME280;51013;42.630;23.192;2022-07-10T02:53:07;92259.94;;;13.47;86.50
64602;BME280;51013;42.630;23.192;2022-07-10T02:55:34;92250.00;;;13.37;86.67
64602;BME280;51013;42.630;23.192;2022-07-10T02:58:01;92209.63;;;13.10;86.68
64602;BME280;51013;42.630;23.192;2022-07-10T03:00:28;92259.47;;;13.41;86.46
64602;BME280;51013;42.630;23.192;2022-07-10T03:02:57;92242.66;;;13.27;86.79
64602;BME280;51013;42.630;23.192;2022-07-10T03:05:24;92250.16;;;13.25;86.64
64602;BME280;51013;42.630;23.192;2022-07-10T03:07:51;92247.13;;;13.22;86.41
64602;BME280;51013;42.630;23.192;2022-07-10T03:10:18;92275.66;;;13.40;86.84
64602;BME280;51013;42.630;23.192;2022-07-10T03:12:45;92274.50;;;13.37;87.20
64602;BME280;51013;42.630;23.192;2022-07-10T03:15:12;92279.84;;;13.41;87.24
64602;BME280;51013;42.630;23.192;2022-07-10T03:17:39;92226.91;;;13.07;87.60
64602;BME280;51013;42.630;23.192;2022-07-10T03:20:09;92269.13;;;13.30;87.92
64602;BME280;51013;42.630;23.192;2022-07-10T03:22:36;92291.28;;;13.52;88.10
64602;BME280;51013;42.630;23.192;2022-07-10T03:25:04;92276.94;;;13.50;88.45
64602;BME280;51013;42.630;23.192;2022-07-10T03:27:31;92254.88;;;13.35;88.43
64602;BME280;51013;42.630;23.192;2022-07-10T03:29:58;92275.31;;;13.41;89.09
64602;BME280;51013;42.630;23.192;2022-07-10T03:32:25;92271.84;;;13.37;89.01
64602;BME280;51013;42.630;23.192;2022-07-10T03:34:52;92281.84;;;13.51;88.94
64602;BME280;51013;42.630;23.192;2022-07-10T03:37:21;92278.47;;;13.51;88.70
64602;BME280;51013;42.630;23.192;2022-07-10T03:39:47;92280.03;;;13.55;87.95
64602;BME280;51013;42.630;23.192;2022-07-10T03:42:14;92262.56;;;13.47;88.43
64602;BME280;51013;42.630;23.192;2022-07-10T03:44:41;92272.22;;;13.62;88.18
64602;BME280;51013;42.630;23.192;2022-07-10T03:47:08;92282.38;;;13.60;88.02
64602;BME280;51013;42.630;23.192;2022-07-10T03:49:36;92237.78;;;13.29;88.35
64602;BME280;51013;42.630;23.192;2022-07-10T03:52:04;92278.91;;;13.56;88.61
64602;BME280;51013;42.630;23.192;2022-07-10T03:54:33;92261.44;;;13.48;88.72
64602;BME280;51013;42.630;23.192;2022-07-10T03:57:00;92275.56;;;13.59;88.43
64602;BME280;51013;42.630;23.192;2022-07-10T03:59:44;92266.28;;;13.69;87.98
64602;BME280;51013;42.630;23.192;2022-07-10T04:02:11;92271.16;;;13.67;88.30
64602;BME280;51013;42.630;23.192;2022-07-10T04:04:38;92272.66;;;13.68;88.64
64602;BME280;51013;42.630;23.192;2022-07-10T04:07:05;92257.84;;;13.60;89.04
64602;BME280;51013;42.630;23.192;2022-07-10T04:09:34;92214.94;;;13.36;88.97
64602;BME280;51013;42.630;23.192;2022-07-10T04:12:00;92262.97;;;13.76;89.34
64602;BME280;51013;42.630;23.192;2022-07-10T04:14:27;92199.53;;;13.38;89.40
64602;BME280;51013;42.630;23.192;2022-07-10T04:16:54;92264.56;;;13.84;89.07
64602;BME280;51013;42.630;23.192;2022-07-10T04:19:22;92262.69;;;13.85;89.52
64602;BME280;51013;42.630;23.192;2022-07-10T04:21:49;92262.69;;;13.85;89.56
64602;BME280;51013;42.630;23.192;2022-07-10T04:24:16;92258.22;;;13.89;89.62
64602;BME280;51013;42.630;23.192;2022-07-10T04:26:44;92203.00;;;13.46;90.16
64602;BME280;51013;42.630;23.192;2022-07-10T04:29:11;92266.50;;;13.87;90.00
64602;BME280;51013;42.630;23.192;2022-07-10T04:31:38;92227.09;;;13.71;90.18
64602;BME280;51013;42.630;23.192;2022-07-10T04:34:05;92251.53;;;13.98;90.54
64602;BME280;51013;42.630;23.192;2022-07-10T04:36:33;92253.53;;;14.05;90.70
64602;BME280;51013;42.630;23.192;2022-07-10T04:38:59;92254.41;;;14.16;91.08
64602;BME280;51013;42.630;23.192;2022-07-10T04:41:26;92254.50;;;14.23;91.46
64602;BME280;51013;42.630;23.192;2022-07-10T04:43:55;92263.88;;;14.21;91.59
64602;BME280;51013;42.630;23.192;2022-07-10T04:46:21;92257.13;;;14.23;91.92
64602;BME280;51013;42.630;23.192;2022-07-10T04:48:49;92238.53;;;14.16;92.61
64602;BME280;51013;42.630;23.192;2022-07-10T04:51:17;92238.94;;;14.18;93.07
64602;BME280;51013;42.630;23.192;2022-07-10T04:53:44;92242.72;;;14.17;93.88
64602;BME280;51013;42.630;23.192;2022-07-10T04:56:11;92261.78;;;14.37;93.65
64602;BME280;51013;42.630;23.192;2022-07-10T04:58:38;92265.00;;;14.54;93.38
64602;BME280;51013;42.630;23.192;2022-07-10T05:01:06;92191.72;;;14.13;93.59
64602;BME280;51013;42.630;23.192;2022-07-10T05:03:33;92265.19;;;14.72;93.71
64602;BME280;51013;42.630;23.192;2022-07-10T05:06:00;92267.16;;;14.78;93.46
64602;BME280;51013;42.630;23.192;2022-07-10T05:08:27;92255.13;;;14.85;93.07
64602;BME280;51013;42.630;23.192;2022-07-10T05:10:54;92261.22;;;14.92;92.84
64602;BME280;51013;42.630;23.192;2022-07-10T05:13:20;92244.53;;;14.85;92.50
64602;BME280;51013;42.630;23.192;2022-07-10T05:15:48;92249.22;;;15.06;92.11
64602;BME280;51013;42.630;23.192;2022-07-10T05:18:16;92221.56;;;14.92;92.25
64602;BME280;51013;42.630;23.192;2022-07-10T05:20:44;92260.31;;;15.22;92.04
64602;BME280;51013;42.630;23.192;2022-07-10T05:23:15;92211.69;;;14.89;88.10
64602;BME280;51013;42.630;23.192;2022-07-10T05:25:42;92250.91;;;15.28;89.50
64602;BME280;51013;42.630;23.192;2022-07-10T05:28:09;92261.19;;;15.37;90.90
64602;BME280;51013;42.630;23.192;2022-07-10T05:30:38;92261.25;;;15.48;91.44
64602;BME280;51013;42.630;23.192;2022-07-10T05:33:05;92266.25;;;15.60;91.05
64602;BME280;51013;42.630;23.192;2022-07-10T05:35:33;92240.88;;;15.52;90.97
64602;BME280;51013;42.630;23.192;2022-07-10T05:38:01;92251.16;;;15.71;90.13
64602;BME280;51013;42.630;23.192;2022-07-10T05:40:27;92264.19;;;15.91;82.52
64602;BME280;51013;42.630;23.192;2022-07-10T05:42:54;92259.69;;;16.06;83.61
64602;BME280;51013;42.630;23.192;2022-07-10T05:45:21;92256.72;;;16.14;85.59
64602;BME280;51013;42.630;23.192;2022-07-10T05:47:49;92263.94;;;16.25;86.37
64602;BME280;51013;42.630;23.192;2022-07-10T05:50:16;92257.53;;;16.33;86.64
64602;BME280;51013;42.630;23.192;2022-07-10T05:52:45;92240.47;;;16.27;83.32
64602;BME280;51013;42.630;23.192;2022-07-10T05:55:12;92262.13;;;16.50;83.13
64602;BME280;51013;42.630;23.192;2022-07-10T05:57:39;92265.19;;;16.63;83.62
64602;BME280;51013;42.630;23.192;2022-07-10T06:00:08;92244.72;;;16.49;82.23
64602;BME280;51013;42.630;23.192;2022-07-10T06:02:35;92246.63;;;16.59;82.79
64602;BME280;51013;42.630;23.192;2022-07-10T06:05:05;92233.00;;;16.68;82.34
64602;BME280;51013;42.630;23.192;2022-07-10T06:07:32;92264.84;;;16.79;83.39
64602;BME280;51013;42.630;23.192;2022-07-10T06:10:04;92266.41;;;16.94;81.14
64602;BME280;51013;42.630;23.192;2022-07-10T06:12:31;92245.16;;;16.91;82.50
64602;BME280;51013;42.630;23.192;2022-07-10T06:14:58;92182.97;;;16.59;80.97
64602;BME280;51013;42.630;23.192;2022-07-10T06:17:25;92100.34;;;15.93;81.26
64602;BME280;51013;42.630;23.192;2022-07-10T06:19:53;92047.25;;;15.53;78.93
64602;BME280;51013;42.630;23.192;2022-07-10T06:22:21;92250.13;;;17.07;79.27
64602;BME280;51013;42.630;23.192;2022-07-10T06:24:57;92252.03;;;17.13;77.54
64602;BME280;51013;42.630;23.192;2022-07-10T06:27:25;92258.84;;;17.14;73.74
64602;BME280;51013;42.630;23.192;2022-07-10T06:29:54;92206.13;;;16.84;74.39
64602;BME280;51013;42.630;23.192;2022-07-10T06:32:20;92239.88;;;17.16;75.18
64602;BME280;51013;42.630;23.192;2022-07-10T06:34:47;92084.84;;;16.23;73.52
64602;BME280;51013;42.630;23.192;2022-07-10T06:37:14;92253.16;;;17.30;73.78
64602;BME280;51013;42.630;23.192;2022-07-10T06:39:41;92230.78;;;17.17;75.11
64602;BME280;51013;42.630;23.192;2022-07-10T06:42:08;92252.03;;;17.28;73.99
64602;BME280;51013;42.630;23.192;2022-07-10T06:44:37;92174.28;;;16.73;76.02
64602;BME280;51013;42.630;23.192;2022-07-10T06:47:04;92246.31;;;17.36;78.18
64602;BME280;51013;42.630;23.192;2022-07-10T06:49:50;92253.53;;;17.50;77.68
64602;BME280;51013;42.630;23.192;2022-07-10T06:52:17;92253.13;;;17.55;75.29
64602;BME280;51013;42.630;23.192;2022-07-10T06:54:44;92203.47;;;17.31;75.08
64602;BME280;51013;42.630;23.192;2022-07-10T06:57:11;92243.63;;;17.69;76.70
64602;BME280;51013;42.630;23.192;2022-07-10T06:59:40;92094.72;;;16.73;75.47
64602;BME280;51013;42.630;23.192;2022-07-10T07:02:07;92222.75;;;17.71;73.50
64602;BME280;51013;42.630;23.192;2022-07-10T07:04:34;92184.09;;;17.37;71.70
64602;BME280;51013;42.630;23.192;2022-07-10T07:07:02;92231.84;;;17.84;74.83
64602;BME280;51013;42.630;23.192;2022-07-10T07:09:29;92249.69;;;17.91;70.91
64602;BME280;51013;42.630;23.192;2022-07-10T07:11:56;92241.66;;;18.01;69.56
64602;BME280;51013;42.630;23.192;2022-07-10T07:14:23;92237.78;;;18.20;74.71
64602;BME280;51013;42.630;23.192;2022-07-10T07:16:52;92235.88;;;18.25;68.04
64602;BME280;51013;42.630;23.192;2022-07-10T07:19:29;92243.44;;;18.33;67.82
64602;BME280;51013;42.630;23.192;2022-07-10T07:22:18;92220.34;;;18.19;68.31
64602;BME280;51013;42.630;23.192;2022-07-10T07:25:04;92236.16;;;18.48;71.36
64602;BME280;51013;42.630;23.192;2022-07-10T07:27:31;92241.47;;;18.52;72.54
64602;BME280;51013;42.630;23.192;2022-07-10T07:30:02;92237.25;;;18.54;69.24
64602;BME280;51013;42.630;23.192;2022-07-10T07:32:31;92234.97;;;18.56;68.04
64602;BME280;51013;42.630;23.192;2022-07-10T07:34:59;92235.69;;;18.64;70.37
64602;BME280;51013;42.630;23.192;2022-07-10T07:37:40;92242.50;;;18.69;68.58
64602;BME280;51013;42.630;23.192;2022-07-10T07:40:08;92240.16;;;18.78;68.79
64602;BME280;51013;42.630;23.192;2022-07-10T07:42:35;92241.28;;;18.88;71.71
64602;BME280;51013;42.630;23.192;2022-07-10T07:45:03;92193.88;;;18.61;67.92
64602;BME280;51013;42.630;23.192;2022-07-10T07:47:39;92233.22;;;18.98;64.58
64602;BME280;51013;42.630;23.192;2022-07-10T07:50:09;92183.94;;;18.72;69.73
64602;BME280;51013;42.630;23.192;2022-07-10T07:52:36;92220.56;;;19.10;64.63
64602;BME280;51013;42.630;23.192;2022-07-10T07:55:03;92234.97;;;19.16;65.12
64602;BME280;51013;42.630;23.192;2022-07-10T07:57:30;92214.13;;;19.07;66.96
64602;BME280;51013;42.630;23.192;2022-07-10T07:59:57;92226.91;;;19.27;65.24
64602;BME280;51013;42.630;23.192;2022-07-10T08:02:24;92175.50;;;18.88;65.87
64602;BME280;51013;42.630;23.192;2022-07-10T08:04:53;92223.50;;;19.26;63.65
64602;BME280;51013;42.630;23.192;2022-07-10T08:07:20;92230.69;;;19.29;63.95
64602;BME280;51013;42.630;23.192;2022-07-10T08:09:47;92224.88;;;19.41;64.60
64602;BME280;51013;42.630;23.192;2022-07-10T08:12:15;92236.59;;;19.51;62.94
64602;BME280;51013;42.630;23.192;2022-07-10T08:14:42;92221.34;;;19.52;62.30
64602;BME280;51013;42.630;23.192;2022-07-10T08:17:10;92172.16;;;19.22;65.20
64602;BME280;51013;42.630;23.192;2022-07-10T08:19:37;92216.28;;;19.65;64.28
64602;BME280;51013;42.630;23.192;2022-07-10T08:22:05;92220.81;;;19.71;67.92
64602;BME280;51013;42.630;23.192;2022-07-10T08:24:32;92209.81;;;19.66;66.24
64602;BME280;51013;42.630;23.192;2022-07-10T08:26:59;92242.00;;;19.86;65.59
64602;BME280;51013;42.630;23.192;2022-07-10T08:29:27;92228.16;;;19.98;62.71
64602;BME280;51013;42.630;23.192;2022-07-10T08:31:54;92236.00;;;20.12;63.91
64602;BME280;51013;42.630;23.192;2022-07-10T08:34:21;92223.31;;;20.24;59.47
64602;BME280;51013;42.630;23.192;2022-07-10T08:36:48;92232.72;;;20.32;58.45
64602;BME280;51013;42.630;23.192;2022-07-10T08:39:16;92235.03;;;20.30;58.31
64602;BME280;51013;42.630;23.192;2022-07-10T08:41:46;92234.75;;;20.20;55.41
64602;BME280;51013;42.630;23.192;2022-07-10T08:44:15;92236.09;;;20.36;58.70
64602;BME280;51013;42.630;23.192;2022-07-10T08:46:43;92210.69;;;20.28;57.36
64602;BME280;51013;42.630;23.192;2022-07-10T08:49:11;92236.75;;;20.44;56.63
64602;BME280;51013;42.630;23.192;2022-07-10T08:51:41;92212.34;;;20.45;59.32
64602;BME280;51013;42.630;23.192;2022-07-10T08:54:14;92232.75;;;20.63;58.36
64602;BME280;51013;42.630;23.192;2022-07-10T08:56:43;92224.97;;;20.72;57.00
64602;BME280;51013;42.630;23.192;2022-07-10T08:59:12;92225.59;;;20.83;58.92
64602;BME280;51013;42.630;23.192;2022-07-10T09:01:40;92213.56;;;20.71;56.96
64602;BME280;51013;42.630;23.192;2022-07-10T09:04:16;92166.81;;;20.59;58.67
64602;BME280;51013;42.630;23.192;2022-07-10T09:06:44;92206.91;;;20.83;57.34
64602;BME280;51013;42.630;23.192;2022-07-10T09:09:14;92221.53;;;20.98;59.13
64602;BME280;51013;42.630;23.192;2022-07-10T09:11:41;92076.00;;;20.12;57.67
64602;BME280;51013;42.630;23.192;2022-07-10T09:14:11;92224.84;;;21.33;59.13
64602;BME280;51013;42.630;23.192;2022-07-10T09:16:40;92220.13;;;21.41;55.32
64602;BME280;51013;42.630;23.192;2022-07-10T09:19:18;92213.59;;;21.18;53.95
64602;BME280;51013;42.630;23.192;2022-07-10T09:21:46;92227.38;;;21.40;55.92
64602;BME280;51013;42.630;23.192;2022-07-10T09:24:14;92199.47;;;21.21;56.05
64602;BME280;51013;42.630;23.192;2022-07-10T09:26:57;92195.97;;;21.25;54.04
64602;BME280;51013;42.630;23.192;2022-07-10T09:29:27;92216.63;;;21.48;53.28
64602;BME280;51013;42.630;23.192;2022-07-10T09:31:56;92149.53;;;20.95;50.79
64602;BME280;51013;42.630;23.192;2022-07-10T09:34:37;92201.13;;;21.12;52.24
64602;BME280;51013;42.630;23.192;2022-07-10T09:37:18;92215.34;;;21.29;55.24
64602;BME280;51013;42.630;23.192;2022-07-10T09:39:55;92200.59;;;21.20;56.59
64602;BME280;51013;42.630;23.192;2022-07-10T09:42:31;92210.19;;;21.18;57.97
64602;BME280;51013;42.630;23.192;2022-07-10T09:45:18;92219.59;;;21.26;56.85
64602;BME280;51013;42.630;23.192;2022-07-10T09:47:53;92211.38;;;21.17;56.39
64602;BME280;51013;42.630;23.192;2022-07-10T09:50:25;92176.44;;;21.04;55.60
64602;BME280;51013;42.630;23.192;2022-07-10T09:52:55;92157.88;;;20.97;58.73
64602;BME280;51013;42.630;23.192;2022-07-10T09:55:25;92211.88;;;21.32;55.92
64602;BME280;51013;42.630;23.192;2022-07-10T09:57:56;92197.28;;;21.36;59.71
64602;BME280;51013;42.630;23.192;2022-07-10T10:00:27;92165.78;;;21.28;56.33
64602;BME280;51013;42.630;23.192;2022-07-10T10:02:58;92212.94;;;21.62;56.66
64602;BME280;51013;42.630;23.192;2022-07-10T10:05:36;92210.28;;;21.81;57.13
64602;BME280;51013;42.630;23.192;2022-07-10T10:08:16;92196.50;;;21.83;53.01
64602;BME280;51013;42.630;23.192;2022-07-10T10:10:46;92207.09;;;21.90;54.07
64602;BME280;51013;42.630;23.192;2022-07-10T10:13:16;92214.34;;;21.90;53.03
64602;BME280;51013;42.630;23.192;2022-07-10T10:15:46;92211.53;;;21.97;56.47
64602;BME280;51013;42.630;23.192;2022-07-10T10:18:16;92215.78;;;21.94;54.20
64602;BME280;51013;42.630;23.192;2022-07-10T10:20:45;92192.13;;;21.93;54.17
64602;BME280;51013;42.630;23.192;2022-07-10T10:23:13;92213.53;;;21.93;51.98
64602;BME280;51013;42.630;23.192;2022-07-10T10:25:40;92195.41;;;21.80;55.45
64602;BME280;51013;42.630;23.192;2022-07-10T10:28:09;92212.72;;;21.96;56.31
64602;BME280;51013;42.630;23.192;2022-07-10T10:30:38;92211.19;;;21.95;57.76
64602;BME280;51013;42.630;23.192;2022-07-10T10:36:46;92204.13;;;21.85;54.38
64602;BME280;51013;42.630;23.192;2022-07-10T10:39:15;92178.13;;;21.45;54.23
64602;BME280;51013;42.630;23.192;2022-07-10T10:41:49;92165.59;;;21.38;54.61
64602;BME280;51013;42.630;23.192;2022-07-10T10:44:27;92137.28;;;21.21;56.10
64602;BME280;51013;42.630;23.192;2022-07-10T10:47:05;92159.66;;;21.51;55.51
64602;BME280;51013;42.630;23.192;2022-07-10T10:49:55;92169.66;;;21.90;55.65
64602;BME280;51013;42.630;23.192;2022-07-10T10:52:30;92206.34;;;22.30;54.94
64602;BME280;51013;42.630;23.192;2022-07-10T10:55:02;92074.16;;;21.71;53.56
64602;BME280;51013;42.630;23.192;2022-07-10T10:57:40;92178.25;;;22.74;55.94
64602;BME280;51013;42.630;23.192;2022-07-10T11:00:15;92169.72;;;22.96;55.17
64602;BME280;51013;42.630;23.192;2022-07-10T11:02:44;92181.47;;;23.02;53.02
64602;BME280;51013;42.630;23.192;2022-07-10T11:05:38;92189.16;;;23.33;55.80
64602;BME280;51013;42.630;23.192;2022-07-10T11:08:08;92145.06;;;23.05;52.85
64602;BME280;51013;42.630;23.192;2022-07-10T11:10:37;92133.59;;;23.04;50.63
64602;BME280;51013;42.630;23.192;2022-07-10T11:13:05;92169.00;;;23.28;52.00
64602;BME280;51013;42.630;23.192;2022-07-10T11:15:33;92184.97;;;23.48;53.15
64602;BME280;51013;42.630;23.192;2022-07-10T11:18:04;92181.84;;;23.50;53.04
64602;BME280;51013;42.630;23.192;2022-07-10T11:20:32;92188.06;;;23.47;54.11
64602;BME280;51013;42.630;23.192;2022-07-10T11:26:03;92186.75;;;23.38;49.72
64602;BME280;51013;42.630;23.192;2022-07-10T11:28:50;92168.53;;;22.97;49.96
64602;BME280;51013;42.630;23.192;2022-07-10T11:31:17;92190.84;;;23.10;52.01
64602;BME280;51013;42.630;23.192;2022-07-10T11:33:46;92188.19;;;23.10;54.37
64602;BME280;51013;42.630;23.192;2022-07-10T11:36:15;92172.06;;;22.94;54.86
64602;BME280;51013;42.630;23.192;2022-07-10T11:38:44;92183.97;;;23.09;49.34
64602;BME280;51013;42.630;23.192;2022-07-10T11:41:19;92136.41;;;22.80;50.99
64602;BME280;51013;42.630;23.192;2022-07-10T11:43:50;92129.22;;;22.77;49.90
64602;BME280;51013;42.630;23.192;2022-07-10T11:46:22;92187.00;;;23.44;52.02
64602;BME280;51013;42.630;23.192;2022-07-10T11:48:50;92188.19;;;23.72;48.54
64602;BME280;51013;42.630;23.192;2022-07-10T11:51:21;92183.16;;;23.58;46.08
64602;BME280;51013;42.630;23.192;2022-07-10T11:53:55;92127.78;;;23.38;50.36
64602;BME280;51013;42.630;23.192;2022-07-10T11:56:25;92145.78;;;23.67;46.87
64602;BME280;51013;42.630;23.192;2022-07-10T11:58:54;92020.81;;;22.98;47.24
64602;BME280;51013;42.630;23.192;2022-07-10T12:01:21;92180.03;;;24.47;47.57
64602;BME280;51013;42.630;23.192;2022-07-10T12:03:56;92134.28;;;24.25;43.60
64602;BME280;51013;42.630;23.192;2022-07-10T12:06:24;92173.31;;;24.55;44.97
64602;BME280;51013;42.630;23.192;2022-07-10T12:08:51;92090.66;;;24.08;43.97
64602;BME280;51013;42.630;23.192;2022-07-10T12:11:19;92143.97;;;24.61;45.29
64602;BME280;51013;42.630;23.192;2022-07-10T12:13:49;92181.88;;;24.63;42.92
64602;BME280;51013;42.630;23.192;2022-07-10T12:16:16;92167.13;;;24.42;44.96
64602;BME280;51013;42.630;23.192;2022-07-10T12:18:45;92177.13;;;24.42;46.73
64602;BME280;51013;42.630;23.192;2022-07-10T12:21:13;92177.97;;;24.38;50.06
64602;BME280;51013;42.630;23.192;2022-07-10T12:23:43;92187.00;;;24.45;48.61
64602;BME280;51013;42.630;23.192;2022-07-10T12:26:11;92172.94;;;24.40;45.75
64602;BME280;51013;42.630;23.192;2022-07-10T12:28:53;92121.47;;;24.16;44.57
64602;BME280;51013;42.630;23.192;2022-07-10T12:31:22;92132.66;;;24.15;44.01
64602;BME280;51013;42.630;23.192;2022-07-10T12:33:53;92166.59;;;24.47;47.15
64602;BME280;51013;42.630;23.192;2022-07-10T12:36:23;92142.94;;;24.16;46.48
64602;BME280;51013;42.630;23.192;2022-07-10T12:38:57;92158.53;;;24.34;44.54
64602;BME280;51013;42.630;23.192;2022-07-10T12:41:24;92175.19;;;24.42;48.67
64602;BME280;51013;42.630;23.192;2022-07-10T12:43:53;92165.50;;;24.19;44.41
64602;BME280;51013;42.630;23.192;2022-07-10T12:46:21;92154.63;;;23.97;45.19
64602;BME280;51013;42.630;23.192;2022-07-10T12:49:02;92175.84;;;24.33;48.90
64602;BME280;51013;42.630;23.192;2022-07-10T12:51:33;92154.88;;;24.28;48.96
64602;BME280;51013;42.630;23.192;2022-07-10T12:54:00;92127.72;;;24.13;46.67
64602;BME280;51013;42.630;23.192;2022-07-10T12:56:39;92186.94;;;24.61;46.26
64602;BME280;51013;42.630;23.192;2022-07-10T12:59:13;92184.06;;;24.68;45.52
64602;BME280;51013;42.630;23.192;2022-07-10T13:01:42;92151.84;;;24.55;43.80
64602;BME280;51013;42.630;23.192;2022-07-10T13:04:09;92102.91;;;24.35;41.27
64602;BME280;51013;42.630;23.192;2022-07-10T13:06:37;92133.88;;;24.78;41.13